Time;durP1;ratioP1;P1;durP2;ratioP2;P2;SDS_P1;SDS_P2;PMS_P1;PMS_P2;Temp;Humidity;BMP_temperature;BMP_pressure;BME280_temperature;BME280_humidity;BME280_pressure;Samples;Min_cycle;Max_cycle;Signal;HPM_P1;HPM_P2
2021/12/11 00:02:22;;;;;;;17.97;10.77;;;4.10;99.90;;;;;;5038467;28;20335;-52
2021/12/11 00:04:55;;;;;;;19.43;11.27;;;4.00;99.90;;;;;;5035237;28;20200;-54
2021/12/11 00:07:24;;;;;;;17.03;10.33;;;4.00;99.90;;;;;;5038528;28;20280;-55
2021/12/11 00:10:00;;;;;;;16.50;10.90;;;4.00;99.90;;;;;;5035801;28;20207;-52
2021/12/11 00:12:36;;;;;;;19.37;10.93;;;4.00;99.90;;;;;;5038742;28;20208;-52
2021/12/11 00:15:27;;;;;;;15.97;10.03;;;3.80;99.90;;;;;;5037068;28;20791;-52
2021/12/11 00:18:07;;;;;;;16.47;10.40;;;3.80;99.90;;;;;;5035715;28;20314;-52
2021/12/11 00:20:41;;;;;;;21.80;12.37;;;4.00;99.90;;;;;;5034071;28;20223;-54
2021/12/11 00:23:08;;;;;;;20.57;12.00;;;4.10;99.90;;;;;;5034720;28;20300;-53
2021/12/11 00:25:43;;;;;;;18.47;11.17;;;4.20;99.90;;;;;;5036263;28;20201;-52
2021/12/11 00:28:12;;;;;;;17.47;12.23;;;4.20;99.90;;;;;;5037544;28;20262;-53
2021/12/11 00:30:43;;;;;;;22.00;13.27;;;4.30;99.90;;;;;;5036084;28;20648;-53
2021/12/11 00:33:18;;;;;;;25.97;14.40;;;4.40;99.90;;;;;;5037781;28;20299;-54
2021/12/11 00:35:46;;;;;;;26.73;15.20;;;4.40;99.90;;;;;;5020688;28;20235;-54
2021/12/11 00:38:17;;;;;;;21.50;13.30;;;4.50;99.90;;;;;;5038595;28;20670;-53
2021/12/11 00:40:47;;;;;;;26.17;15.50;;;4.50;99.90;;;;;;5039362;28;20702;-54
2021/12/11 00:43:20;;;;;;;26.23;15.33;;;4.50;99.90;;;;;;5036218;28;20243;-54
2021/12/11 00:45:49;;;;;;;29.27;15.53;;;4.50;99.90;;;;;;5036606;28;20607;-53
2021/12/11 00:48:21;;;;;;;26.03;16.77;;;4.50;99.90;;;;;;5040353;28;20979;-54
2021/12/11 00:50:52;;;;;;;26.63;14.83;;;4.50;99.90;;;;;;5035226;28;20284;-52
2021/12/11 00:53:24;;;;;;;22.70;13.50;;;4.50;99.90;;;;;;5020810;28;20295;-53
2021/12/11 00:55:59;;;;;;;22.03;13.67;;;4.30;99.90;;;;;;5040676;28;20286;-53
2021/12/11 00:58:29;;;;;;;26.50;14.50;;;4.40;99.90;;;;;;5039908;28;20265;-52
2021/12/11 01:01:13;;;;;;;21.63;13.13;;;4.40;99.90;;;;;;5040430;28;20298;-53
2021/12/11 01:03:46;;;;;;;23.40;13.23;;;4.20;99.90;;;;;;5036342;28;20214;-54
2021/12/11 01:06:21;;;;;;;23.20;14.10;;;4.30;99.90;;;;;;5037001;28;20673;-54
2021/12/11 01:08:56;;;;;;;20.53;12.93;;;4.30;99.90;;;;;;5036963;28;20223;-55
2021/12/11 01:11:31;;;;;;;18.80;12.80;;;4.30;99.90;;;;;;5039957;28;20210;-54
2021/12/11 01:14:25;;;;;;;21.97;13.67;;;4.30;99.90;;;;;;5039654;28;20293;-53
2021/12/11 01:17:03;;;;;;;23.37;13.47;;;4.10;99.90;;;;;;5038718;28;20643;-51
2021/12/11 01:19:36;;;;;;;22.63;13.50;;;3.90;99.90;;;;;;5036963;28;20327;-54
2021/12/11 01:22:33;;;;;;;23.17;13.97;;;3.70;99.90;;;;;;5038677;28;20307;-54
2021/12/11 01:25:26;;;;;;;23.60;13.57;;;3.50;99.90;;;;;;5039230;28;20551;-53
2021/12/11 01:27:56;;;;;;;20.97;13.10;;;3.70;99.90;;;;;;5038781;28;20487;-53
2021/12/11 01:30:31;;;;;;;24.77;13.33;;;3.70;99.90;;;;;;5038792;28;20413;-53
2021/12/11 01:32:58;;;;;;;21.60;13.33;;;3.80;99.90;;;;;;5038263;28;21089;-53
2021/12/11 01:35:26;;;;;;;24.23;13.60;;;3.80;99.90;;;;;;5021113;28;20283;-54
2021/12/11 01:38:08;;;;;;;20.50;13.60;;;3.60;99.90;;;;;;5037530;28;20236;-53
2021/12/11 01:40:35;;;;;;;23.17;13.77;;;3.80;99.90;;;;;;5038676;28;20329;-53
2021/12/11 01:43:05;;;;;;;21.53;13.93;;;3.80;99.90;;;;;;5039185;28;20331;-52
2021/12/11 01:45:33;;;;;;;22.50;14.07;;;3.80;99.90;;;;;;5038650;28;20613;-53
2021/12/11 01:48:19;;;;;;;22.67;13.13;;;3.90;99.90;;;;;;5037618;28;20933;-54
2021/12/11 01:50:50;;;;;;;21.33;13.10;;;3.80;99.90;;;;;;5038496;28;20231;-54
2021/12/11 01:53:30;;;;;;;23.90;13.83;;;4.00;99.90;;;;;;5037943;28;20231;-52
2021/12/11 01:56:07;;;;;;;23.73;13.17;;;4.10;99.90;;;;;;5038678;28;20210;-53
2021/12/11 01:58:50;;;;;;;23.00;14.10;;;4.10;99.90;;;;;;5039254;28;20221;-55
2021/12/11 02:01:23;;;;;;;22.43;13.30;;;4.20;99.90;;;;;;5038868;28;20247;-53
2021/12/11 02:03:53;;;;;;;23.30;13.00;;;4.20;99.90;;;;;;5036379;28;20266;-55
2021/12/11 02:06:20;;;;;;;21.27;12.93;;;4.20;99.90;;;;;;5039086;28;20273;-53
2021/12/11 02:08:47;;;;;;;22.03;14.10;;;4.20;99.90;;;;;;5037764;28;20245;-53
2021/12/11 02:11:21;;;;;;;24.10;13.53;;;4.20;99.90;;;;;;5038255;28;20231;-53
2021/12/11 02:14:04;;;;;;;21.53;13.53;;;4.00;99.90;;;;;;5036894;28;20200;-55
2021/12/11 02:16:43;;;;;;;22.20;13.03;;;4.00;99.90;;;;;;5039045;28;20277;-55
2021/12/11 02:19:28;;;;;;;19.47;12.17;;;4.20;99.90;;;;;;5036782;28;20588;-54
2021/12/11 02:22:18;;;;;;;20.13;13.07;;;4.30;99.90;;;;;;5039203;28;20224;-54
2021/12/11 02:24:50;;;;;;;20.20;12.23;;;4.30;99.90;;;;;;5038044;28;20202;-53
2021/12/11 02:27:24;;;;;;;22.73;13.30;;;4.30;99.90;;;;;;5038495;28;20192;-53
2021/12/11 02:30:18;;;;;;;21.67;13.03;;;4.30;99.90;;;;;;5037934;28;20244;-54
2021/12/11 02:32:57;;;;;;;21.33;12.73;;;4.30;99.90;;;;;;5038056;28;20270;-55
2021/12/11 02:35:36;;;;;;;22.87;13.13;;;4.30;99.90;;;;;;5034465;28;20294;-54
2021/12/11 02:38:18;;;;;;;21.57;13.70;;;4.30;99.90;;;;;;5038728;28;20519;-53
2021/12/11 02:40:57;;;;;;;21.27;13.17;;;4.20;99.90;;;;;;5039407;28;20235;-53
2021/12/11 02:43:56;;;;;;;21.00;13.27;;;4.20;99.90;;;;;;5040689;28;20275;-53
2021/12/11 02:46:29;;;;;;;21.80;13.17;;;4.20;99.90;;;;;;5039695;28;20224;-53
2021/12/11 02:49:07;;;;;;;22.80;14.10;;;3.90;99.90;;;;;;5037585;28;20214;-55
2021/12/11 02:51:43;;;;;;;23.73;13.13;;;3.80;99.90;;;;;;5041520;28;20203;-54
2021/12/11 02:54:24;;;;;;;22.97;13.60;;;3.80;99.90;;;;;;5040895;28;20262;-53
2021/12/11 02:57:03;;;;;;;20.63;13.37;;;3.90;99.90;;;;;;5040408;28;20239;-52
2021/12/11 02:59:32;;;;;;;19.13;12.83;;;3.70;99.90;;;;;;5042518;28;20277;-53
2021/12/11 03:02:10;;;;;;;23.83;13.53;;;3.70;99.90;;;;;;5042336;28;20224;-55
2021/12/11 03:04:47;;;;;;;21.87;13.30;;;4.00;99.90;;;;;;5042407;28;20196;-53
2021/12/11 03:07:15;;;;;;;19.97;11.60;;;4.00;99.90;;;;;;5040424;28;20612;-54
2021/12/11 03:09:50;;;;;;;18.53;12.80;;;3.90;99.90;;;;;;5041325;28;20299;-53
2021/12/11 03:12:19;;;;;;;22.60;13.00;;;4.00;99.90;;;;;;5040740;28;20207;-54
2021/12/11 03:14:47;;;;;;;15.87;10.83;;;4.10;99.90;;;;;;5042046;28;20295;-54
2021/12/11 03:17:16;;;;;;;16.10;10.77;;;4.00;99.90;;;;;;5041699;28;20675;-54
2021/12/11 03:19:45;;;;;;;21.73;12.33;;;4.10;99.90;;;;;;5039946;28;20232;-53
2021/12/11 03:22:19;;;;;;;18.50;11.40;;;4.30;99.90;;;;;;5041094;28;20766;-53
2021/12/11 03:24:47;;;;;;;18.83;12.07;;;4.30;99.90;;;;;;5043651;28;20231;-54
2021/12/11 03:27:14;;;;;;;18.50;11.23;;;4.40;99.90;;;;;;5025719;28;21446;-54
2021/12/11 03:29:41;;;;;;;17.03;11.23;;;4.40;99.90;;;;;;5041120;28;20270;-53
2021/12/11 03:32:12;;;;;;;17.43;10.73;;;4.40;99.90;;;;;;5041092;28;20285;-52
2021/12/11 03:34:40;;;;;;;20.37;12.73;;;4.30;99.90;;;;;;5039529;28;20262;-52
2021/12/11 03:37:10;;;;;;;19.17;11.63;;;4.40;99.90;;;;;;5041148;28;20222;-55
2021/12/11 03:39:41;;;;;;;18.67;11.40;;;4.30;99.90;;;;;;5025564;28;20708;-53
2021/12/11 03:42:21;;;;;;;19.53;11.90;;;4.40;99.90;;;;;;5041923;28;20228;-53
2021/12/11 03:44:49;;;;;;;21.87;12.73;;;4.40;99.90;;;;;;5040200;28;20213;-53
2021/12/11 03:47:21;;;;;;;19.80;11.80;;;4.40;99.90;;;;;;5040058;28;20305;-54
2021/12/11 03:49:49;;;;;;;21.17;12.77;;;4.40;99.90;;;;;;5040594;28;20572;-52
2021/12/11 03:52:17;;;;;;;19.80;12.60;;;4.40;99.90;;;;;;5041856;28;20659;-53
2021/12/11 03:54:47;;;;;;;21.23;12.70;;;4.50;99.90;;;;;;5043275;28;20672;-52
2021/12/11 03:57:17;;;;;;;19.60;13.03;;;4.50;99.90;;;;;;5040173;28;20289;-53
2021/12/11 03:59:47;;;;;;;22.17;14.17;;;4.50;99.90;;;;;;5040487;28;20300;-54
2021/12/11 04:02:18;;;;;;;18.27;12.50;;;4.60;99.90;;;;;;5040219;28;20311;-55
2021/12/11 04:04:54;;;;;;;21.60;13.07;;;4.60;99.90;;;;;;5039979;28;20203;-52
2021/12/11 04:07:25;;;;;;;19.47;11.30;;;4.50;99.90;;;;;;5041126;28;20203;-53
2021/12/11 04:09:53;;;;;;;20.53;12.10;;;4.50;99.90;;;;;;5041494;28;20203;-53
2021/12/11 04:12:22;;;;;;;18.93;11.77;;;4.60;99.90;;;;;;5041710;28;20208;-53
2021/12/11 04:14:52;;;;;;;17.97;11.37;;;4.60;99.90;;;;;;5041102;28;20240;-52
2021/12/11 04:17:22;;;;;;;22.77;13.80;;;4.70;99.90;;;;;;5041297;28;20196;-53
2021/12/11 04:19:52;;;;;;;18.93;12.37;;;4.60;99.90;;;;;;5039700;28;20286;-55
2021/12/11 04:22:19;;;;;;;22.57;13.10;;;4.60;99.90;;;;;;5039152;28;20216;-52
2021/12/11 04:24:46;;;;;;;23.27;14.10;;;4.40;99.90;;;;;;5040327;28;20514;-54
2021/12/11 04:27:17;;;;;;;20.77;13.13;;;4.40;99.90;;;;;;5040439;28;20193;-55
2021/12/11 04:29:47;;;;;;;21.00;13.40;;;4.50;99.90;;;;;;5041093;28;20208;-53
2021/12/11 04:32:19;;;;;;;21.47;12.47;;;4.60;99.90;;;;;;5040620;28;20332;-54
2021/12/11 04:34:47;;;;;;;20.80;13.23;;;4.50;99.90;;;;;;5039030;28;20235;-53
2021/12/11 04:37:19;;;;;;;21.07;12.67;;;4.70;99.90;;;;;;5039021;28;20250;-52
2021/12/11 04:39:53;;;;;;;22.23;13.60;;;4.70;99.90;;;;;;5040280;28;20223;-54
2021/12/11 04:42:37;;;;;;;23.20;14.17;;;4.60;99.90;;;;;;5040446;28;20246;-55
2021/12/11 04:45:08;;;;;;;20.83;12.37;;;4.80;99.90;;;;;;5040409;28;20196;-55
2021/12/11 04:47:46;;;;;;;19.83;12.67;;;4.80;99.90;;;;;;5038788;28;20293;-55
2021/12/11 04:50:28;;;;;;;19.20;12.53;;;4.70;99.90;;;;;;5036639;28;20204;-53
2021/12/11 04:52:58;;;;;;;20.83;12.27;;;4.60;99.90;;;;;;5039660;28;20213;-54
2021/12/11 04:55:52;;;;;;;22.77;12.50;;;4.70;99.90;;;;;;5040137;28;20207;-54
2021/12/11 05:06:24;;;;;;;18.73;11.63;;;5.10;99.90;;;;;;5040394;28;20223;-53
2021/12/11 05:11:37;;;;;;;18.20;11.33;;;5.10;99.90;;;;;;5038941;28;20243;-53
2021/12/11 05:14:06;;;;;;;18.57;11.97;;;4.80;99.90;;;;;;5023583;28;20292;-53
2021/12/11 05:16:32;;;;;;;22.37;13.10;;;4.90;99.90;;;;;;5028990;28;20204;-55
2021/12/11 05:18:59;;;;;;;20.57;12.97;;;4.80;99.90;;;;;;5038889;28;20197;-52
2021/12/11 05:21:26;;;;;;;18.20;12.83;;;4.80;99.90;;;;;;5038828;28;20266;-52
2021/12/11 05:23:53;;;;;;;17.97;12.20;;;4.60;99.90;;;;;;5037334;28;20370;-52
2021/12/11 05:26:22;;;;;;;18.20;12.43;;;4.50;99.90;;;;;;5039074;28;20217;-52
2021/12/11 05:28:49;;;;;;;22.87;13.13;;;4.50;99.90;;;;;;5038750;28;20249;-54
2021/12/11 05:31:16;;;;;;;21.07;13.47;;;4.70;99.90;;;;;;5039268;28;20290;-55
2021/12/11 05:33:44;;;;;;;20.23;12.87;;;4.70;99.90;;;;;;5009372;28;20200;-52
2021/12/11 05:36:14;;;;;;;22.73;12.60;;;4.70;99.90;;;;;;5039096;28;20240;-53
2021/12/11 05:38:41;;;;;;;20.33;13.00;;;4.50;99.90;;;;;;5038907;28;20285;-54
2021/12/11 05:41:13;;;;;;;19.90;12.50;;;4.40;99.90;;;;;;5038682;28;20348;-53
2021/12/11 05:43:40;;;;;;;19.63;12.13;;;4.60;99.90;;;;;;5038798;28;20226;-55
2021/12/11 05:46:09;;;;;;;19.93;13.23;;;4.60;99.90;;;;;;5025262;28;20282;-54
2021/12/11 05:48:36;;;;;;;21.00;13.17;;;4.80;99.90;;;;;;5036600;28;20684;-54
2021/12/11 05:51:07;;;;;;;17.23;11.07;;;4.80;99.90;;;;;;5038145;28;20202;-53
2021/12/11 05:53:34;;;;;;;18.93;12.27;;;4.80;99.90;;;;;;5038737;28;20858;-55
2021/12/11 05:56:11;;;;;;;18.60;11.97;;;4.80;99.90;;;;;;5039551;28;20207;-52
2021/12/11 06:01:30;;;;;;;18.97;11.93;;;4.80;99.90;;;;;;5038204;28;20192;-54
2021/12/11 06:04:04;;;;;;;19.83;12.20;;;4.50;99.90;;;;;;5038048;28;20251;-55
2021/12/11 06:06:31;;;;;;;21.63;12.53;;;4.40;99.90;;;;;;5038055;28;20200;-54
2021/12/11 06:08:58;;;;;;;23.30;13.40;;;4.20;99.90;;;;;;5039349;28;20234;-55
2021/12/11 06:11:25;;;;;;;18.13;11.40;;;4.10;99.90;;;;;;5039144;28;20282;-55
2021/12/11 06:13:52;;;;;;;18.33;12.17;;;4.10;99.90;;;;;;5038190;28;20668;-54
2021/12/11 06:16:19;;;;;;;18.10;11.90;;;4.00;99.90;;;;;;5038591;28;20562;-53
2021/12/11 06:18:46;;;;;;;17.17;11.70;;;4.00;99.90;;;;;;5039411;28;20204;-56
2021/12/11 06:21:14;;;;;;;18.43;12.03;;;4.00;99.90;;;;;;5036848;28;20732;-54
2021/12/11 06:23:42;;;;;;;23.70;12.10;;;4.10;99.90;;;;;;5020094;28;20247;-55
2021/12/11 06:26:10;;;;;;;18.03;12.33;;;4.10;99.90;;;;;;5039753;28;20686;-53
2021/12/11 06:28:38;;;;;;;15.77;11.57;;;4.00;99.90;;;;;;5038522;28;20784;-53
2021/12/11 06:31:06;;;;;;;17.07;11.77;;;4.00;99.90;;;;;;5039208;28;20201;-54
2021/12/11 06:33:34;;;;;;;20.70;12.60;;;4.00;99.90;;;;;;5021904;28;20200;-54
2021/12/11 06:36:10;;;;;;;16.87;11.20;;;4.00;99.90;;;;;;5038024;28;20250;-53
2021/12/11 06:38:38;;;;;;;19.40;11.47;;;4.00;99.90;;;;;;5037501;28;20207;-55
2021/12/11 06:41:07;;;;;;;20.93;12.47;;;4.10;99.90;;;;;;5039788;28;20289;-54
2021/12/11 06:43:35;;;;;;;17.83;11.27;;;4.00;99.90;;;;;;5039872;28;20299;-55
2021/12/11 06:46:03;;;;;;;20.13;12.43;;;4.00;99.90;;;;;;5038012;28;20196;-54
2021/12/11 06:48:30;;;;;;;19.93;12.77;;;3.90;99.90;;;;;;5036103;28;20265;-55
2021/12/11 06:50:59;;;;;;;21.93;12.53;;;4.00;99.90;;;;;;5038519;28;20241;-55
2021/12/11 06:53:41;;;;;;;19.53;11.13;;;4.00;99.90;;;;;;5035872;28;20226;-54
2021/12/11 06:56:11;;;;;;;21.43;12.43;;;4.10;99.90;;;;;;5039621;28;20232;-56
2021/12/11 06:58:38;;;;;;;19.27;11.10;;;4.20;99.90;;;;;;5037836;28;20247;-55
2021/12/11 07:01:06;;;;;;;18.17;11.57;;;4.20;99.90;;;;;;5034522;28;20290;-54
2021/12/11 07:03:34;;;;;;;17.10;11.43;;;4.20;99.90;;;;;;5038111;28;20213;-54
2021/12/11 07:06:02;;;;;;;19.50;12.00;;;4.40;99.90;;;;;;5036362;28;20200;-54
2021/12/11 07:08:29;;;;;;;16.83;11.23;;;4.40;99.90;;;;;;5036554;28;20232;-54
2021/12/11 07:11:00;;;;;;;18.37;10.90;;;4.40;99.90;;;;;;5037684;28;20335;-53
2021/12/11 07:13:28;;;;;;;21.57;12.17;;;4.40;99.90;;;;;;5037160;28;20266;-54
2021/12/11 07:15:56;;;;;;;19.80;11.70;;;4.40;99.90;;;;;;5036072;28;20244;-54
2021/12/11 07:18:24;;;;;;;15.93;10.30;;;4.50;99.90;;;;;;5038186;28;20204;-53
2021/12/11 07:20:51;;;;;;;17.60;10.77;;;4.50;99.90;;;;;;5034754;28;20306;-52
2021/12/11 07:23:18;;;;;;;14.73;9.70;;;4.60;99.90;;;;;;5036409;28;20329;-53
2021/12/11 07:25:58;;;;;;;17.90;10.27;;;4.70;99.90;;;;;;5037576;28;20241;-54
2021/12/11 07:28:25;;;;;;;20.63;10.67;;;4.70;99.90;;;;;;5035249;28;21003;-53
2021/12/11 07:30:55;;;;;;;13.83;9.73;;;4.80;99.90;;;;;;5037549;28;20290;-55
2021/12/11 07:33:22;;;;;;;16.63;9.60;;;4.80;99.90;;;;;;5037353;28;20270;-55
2021/12/11 07:35:51;;;;;;;16.87;10.07;;;4.90;99.90;;;;;;5035477;28;20291;-53
2021/12/11 07:38:19;;;;;;;14.33;8.87;;;4.90;99.90;;;;;;5036243;28;20212;-53
2021/12/11 07:40:53;;;;;;;19.37;8.70;;;4.90;99.90;;;;;;5040378;28;20232;-54
2021/12/11 07:43:22;;;;;;;12.07;8.10;;;4.90;99.90;;;;;;5038779;28;20218;-54
2021/12/11 07:45:50;;;;;;;16.43;8.60;;;4.90;99.90;;;;;;5037792;28;20204;-54
2021/12/11 07:48:17;;;;;;;15.37;7.10;;;5.00;99.90;;;;;;5036655;28;20197;-53
2021/12/11 07:50:44;;;;;;;20.27;9.07;;;5.00;99.90;;;;;;5017407;28;20445;-52
2021/12/11 07:53:13;;;;;;;11.73;7.13;;;5.00;99.90;;;;;;5038594;28;20223;-56
2021/12/11 07:55:40;;;;;;;14.30;6.47;;;5.10;99.90;;;;;;5036473;28;20270;-53
2021/12/11 07:58:08;;;;;;;11.97;6.63;;;5.10;99.90;;;;;;5032955;28;20698;-54
2021/12/11 08:00:38;;;;;;;11.63;5.50;;;5.10;99.90;;;;;;5035340;28;20278;-55
